• Join FlightAware (Why Join?)
  • Login
  • US Flag 
12:30PM EST


 

Airport Tracker/Info


-or-


 

Live Flight TrackerFlight Track Log ✈ NKS439 ✈ 17-Jul-2014 ✈ KFLL - MNMG / MGA

Flight Track Log - Related Links

Times and Time Zones

All times are in EDT time to prevent confusion due to time zone crossing. See the NKS439 flight status page for this flight to view local times or setup timezone preferences in your user account.

Time Position Orientation Groundspeed Altitude Reporting Facility
EDT Latitude Longitude Course Direction KTS MPH feet Rate Location/Type
12:14AM 25.8888 -80.4407 201° Southwest 329 379 10,700  Level FlightAware ADS-B (KEYW)
12:15AM 25.8192 -80.4694 201° Southwest 368 423 11,700 1,800 Climbing FlightAware ADS-B (KEYW)
12:15AM 25.7486 -80.4983 198° South 374 430 13,400 2,100 Climbing FlightAware ADS-B (KEYW)
12:16AM 25.6663 -80.5201 194° South 387 445 14,900 1,860 Climbing FlightAware ADS-B (KEYW)
12:17AM 25.5866 -80.5406 194° South 396 456 16,300 1,680 Climbing FlightAware ADS-B (KEYW)
12:17AM 25.5333 -80.5544 194° South 406 467 17,000 1,620 Climbing FlightAware ADS-B (KEYW)
12:18AM 25.4765 -80.5689 194° South 408 470 18,000 1,680 Climbing FlightAware ADS-B (KEYW)
12:19AM 25.3926 -80.5904 194° South 416 479 19,200 1,560 Climbing FlightAware ADS-B (KEYW)
12:19AM 25.3094 -80.6117 194° South 422 486 20,400 1,500 Climbing FlightAware ADS-B (KEYW)
12:20AM 25.2508 -80.6267 193° South 426 490 21,100 1,320 Climbing FlightAware ADS-B (KEYW)
12:21AM 25.1910 -80.6419 194° South 431 496 21,800 1,320 Climbing FlightAware ADS-B (KEYW)
12:21AM 25.1034 -80.6643 194° South 436 502 22,800 1,200 Climbing FlightAware ADS-B (KEYW)
12:22AM 25.0425 -80.6799 194° South 442 509 23,300 1,080 Climbing FlightAware ADS-B (KEYW)
12:23AM 24.9515 -80.7031 194° South 447 514 24,200 1,260 Climbing FlightAware ADS-B (KEYW)
12:23AM 24.8612 -80.7261 194° South 449 517 25,200 1,140 Climbing FlightAware ADS-B (KEYW)
12:24AM 24.7653 -80.7503 194° South 455 524 26,000 960 Climbing FlightAware ADS-B (KEYW)
12:25AM 24.6734 -80.7737 194° South 462 532 26,700 960 Climbing FlightAware ADS-B (KEYW)
12:26AM 24.5793 -80.7975 194° South 465 535 27,500 1,020 Climbing FlightAware ADS-B (KEYW)
12:26AM 24.5159 -80.8135 193° South 466 536 28,000 840 Climbing FlightAware ADS-B (KEYW)
12:27AM 24.4199 -80.8378 193° South 473 544 28,600 840 Climbing FlightAware ADS-B (KEYW)
12:28AM 24.3246 -80.8617 194° South 475 547 29,300 1,020 Climbing FlightAware ADS-B (KEYW)
12:28AM 24.2261 -80.8866 194° South 471 542 30,200 1,020 Climbing FlightAware ADS-B (KEYW)
12:29AM 24.1309 -80.9106 194° South 473 544 30,900 1,080 Climbing FlightAware ADS-B (KEYW)
12:30AM 24.0336 -80.9349 194° South 465 535 31,900 1,080 Climbing FlightAware ADS-B (KEYW)
12:30AM 23.9710 -80.9506 193° South 469 540 32,300 840 Climbing FlightAware ADS-B (KEYW)
12:31AM 23.8742 -80.9748 194° South 469 540 33,000 1,080 Climbing FlightAware ADS-B (KEYW)
12:32AM 23.7805 -81.0102 201° Southwest 461 531 34,000 1,200 Climbing FlightAware ADS-B (KEYW)
12:33AM 23.6916 -81.0450 200° South 454 522 34,900 540 Climbing FlightAware ADS-B (KEYW)
12:34AM 23.5699 -81.0925 200° South 471 542 35,000  Climbing FlightAware ADS-B (KEYW)
12:34AM 23.4760 -81.1291 200° South 476 548 35,000  Level FlightAware ADS-B (KEYW)
12:35AM 23.3841 -81.1649 200° South 476 548 35,000  Level FlightAware ADS-B (KEYW)
12:36AM 23.2913 -81.2010 200° South 476 548 35,000  Level FlightAware ADS-B (KEYW)
12:37AM 23.1984 -81.2372 200° South 478 550 35,000  Level FlightAware ADS-B (KEYW)
12:37AM 23.1020 -81.2747 200° South 476 548 35,000  Level FlightAware ADS-B (KEYW)
12:38AM 23.0112 -81.3098 200° South 477 549 35,000  Level FlightAware ADS-B (KEYW)
12:39AM 22.9139 -81.3475 200° South 476 548 35,000  Level FlightAware ADS-B (KEYW)
12:40AM 22.8202 -81.3819 195° South 470 541 35,000  Level FlightAware ADS-B (KEYW)
12:40AM 22.7350 -81.3997 191° South 473 544 35,000  Level FlightAware ADS-B (KEYW)
12:41AM 22.6707 -81.4121 191° South 474 545 35,000  Level FlightAware ADS-B (KEYW)
12:41AM 22.6091 -81.4242 191° South 475 547 35,000  Level FlightAware ADS-B (KEYW)
12:42AM 22.5367 -81.4385 191° South 476 548 35,000  Level FlightAware ADS-B (KEYW)
12:43AM 22.4285 -81.4603 191° South 477 549 35,000  Level FlightAware ADS-B (KEYW)
12:43AM 22.3660 -81.4728 191° South 477 549 35,000  Level FlightAware ADS-B (KEYW)
12:44AM 22.3015 -81.4859 191° South 477 549 35,000  Level FlightAware ADS-B (KEYW)
12:44AM 22.1997 -81.5067 191° South 478 550 35,000  Level FlightAware ADS-B (KEYW)
12:45AM 22.1093 -81.5221 190° South 470 541 35,000  Level FlightAware ADS-B (KEYW)
12:46AM 22.0425 -81.5337 190° South 470 541 35,000  Level FlightAware ADS-B (KEYW)
12:46AM 21.9761 -81.5462 191° South 467 537 35,000  Level FlightAware ADS-B (KEYW)
12:47AM 21.8536 -81.5730 192° South 478 550 35,000  Level FlightAware ADS-B (KEYW)
12:47AM 21.8132 -81.5816 192° South 478 550 35,000  Level FlightAware ADS-B (KEYW)
12:48AM 21.7008 -81.6207 206° Southwest 479 551 35,000  Level FlightAware ADS-B (KEYW)
12:49AM 21.6233 -81.6599 206° Southwest 480 552 35,000  Level FlightAware ADS-B (KEYW)
12:52AM 21.2613 -81.8404 205° Southwest 473 544 35,000  Level FlightAware ADS-B (KEYW)
12:53AM 21.1735 -81.8839 205° Southwest 475 547 35,000  Level FlightAware ADS-B (KEYW)
12:53AM 21.1297 -81.9057 205° Southwest 476 548 35,000  Level FlightAware ADS-B (KEYW)
12:54AM 20.9911 -81.9743 205° Southwest 480 552 35,000  Level FlightAware ADS-B (KEYW)
12:54AM 20.9715 -81.9840 205° Southwest 479 551 35,000  Level FlightAware ADS-B (KEYW)
12:56AM 20.7798 -82.0788 205° Southwest 477 549 35,000  Level FlightAware ADS-B (KEYW)
12:56AM 20.7433 -82.0967 205° Southwest 477 549 35,000  Level FlightAware ADS-B (KEYW)
12:59AM 20.4801 -82.1791 196° South  Level FlightAware Approximate
01:00AM 20.3706 -82.2402 209° Southwest  Level FlightAware Approximate
01:01AM 20.2686 -82.3005 209° Southwest  Level FlightAware Approximate
01:02AM 20.1665 -82.3608 209° Southwest  Level FlightAware Approximate
01:03AM 20.0599 -82.4033 205° Southwest  Level FlightAware Approximate
01:04AM 19.9541 -82.4558 205° Southwest  Level FlightAware Approximate
01:05AM 19.8483 -82.5081 205° Southwest  Level FlightAware Approximate
01:06AM 19.7425 -82.5605 205° Southwest  Level FlightAware Approximate
01:07AM 19.6366 -82.6127 205° Southwest  Level FlightAware Approximate
01:08AM 19.5307 -82.6648 205° Southwest  Level FlightAware Approximate
01:09AM 19.4249 -82.7169 205° Southwest  Level FlightAware Approximate
01:10AM 19.3190 -82.7690 205° Southwest  Level FlightAware Approximate
01:11AM 19.2130 -82.8209 205° Southwest  Level FlightAware Approximate
01:12AM 19.1071 -82.8728 205° Southwest  Level FlightAware Approximate
01:13AM 19.0012 -82.9247 205° Southwest  Level FlightAware Approximate
01:14AM 18.8952 -82.9764 205° Southwest  Level FlightAware Approximate
01:15AM 18.7892 -83.0281 205° Southwest  Level FlightAware Approximate
01:16AM 18.6833 -83.0797 205° Southwest  Level FlightAware Approximate
01:17AM 18.5772 -83.1313 205° Southwest  Level FlightAware Approximate
01:18AM 18.4712 -83.1828 205° Southwest  Level FlightAware Approximate
01:19AM 18.3652 -83.2343 205° Southwest  Level FlightAware Approximate
01:20AM 18.2592 -83.2856 205° Southwest  Level FlightAware Approximate
01:21AM 18.1531 -83.3369 205° Southwest  Level FlightAware Approximate
01:22AM 18.0471 -83.3882 205° Southwest  Level FlightAware Approximate
01:23AM 17.9410 -83.4394 205° Southwest  Level FlightAware Approximate
01:24AM 17.8349 -83.4905 205° Southwest  Level FlightAware Approximate
01:25AM 17.7288 -83.5416 205° Southwest  Level FlightAware Approximate
01:26AM 17.6226 -83.5926 205° Southwest  Level FlightAware Approximate
01:27AM 17.5165 -83.6435 205° Southwest  Level FlightAware Approximate
01:28AM 17.4104 -83.6944 205° Southwest  Level FlightAware Approximate
01:29AM 17.3042 -83.7452 205° Southwest  Level FlightAware Approximate
01:30AM 17.1980 -83.7960 205° Southwest  Level FlightAware Approximate
01:31AM 17.0918 -83.8467 205° Southwest  Level FlightAware Approximate
01:32AM 16.9857 -83.8975 205° Southwest  Level FlightAware Approximate
01:33AM 16.8796 -83.9483 205° Southwest  Level FlightAware Approximate
01:34AM 16.7734 -83.9990 205° Southwest  Level FlightAware Approximate
01:35AM 16.6673 -84.0497 205° Southwest  Level FlightAware Approximate
01:36AM 16.5611 -84.1003 205° Southwest  Level FlightAware Approximate
01:37AM 16.4549 -84.1509 205° Southwest  Level FlightAware Approximate
01:38AM 16.3488 -84.2014 205° Southwest  Level FlightAware Approximate
01:39AM 16.2427 -84.2522 205° Southwest  Level FlightAware Approximate
01:40AM 16.1367 -84.3031 205° Southwest  Level FlightAware Approximate
01:41AM 16.0307 -84.3540 205° Southwest  Level FlightAware Approximate
01:42AM 15.9247 -84.4048 205° Southwest  Level FlightAware Approximate
01:43AM 15.8187 -84.4556 205° Southwest  Level FlightAware Approximate
01:44AM 15.7127 -84.5063 205° Southwest  Level FlightAware Approximate
01:45AM 15.6066 -84.5569 205° Southwest  Level FlightAware Approximate
01:46AM 15.5006 -84.6075 205° Southwest  Level FlightAware Approximate
01:47AM 15.3945 -84.6581 205° Southwest  Level FlightAware Approximate
01:48AM 15.2884 -84.7086 205° Southwest  Level FlightAware Approximate
01:49AM 15.1823 -84.7590 205° Southwest  Level FlightAware Approximate
01:50AM 15.0762 -84.8094 205° Southwest  Level FlightAware Approximate
01:51AM 14.9701 -84.8597 205° Southwest  Level FlightAware Approximate
01:52AM 14.8640 -84.9100 205° Southwest  Level FlightAware Approximate
01:53AM 14.7577 -84.9598 204° Southwest  Level FlightAware Approximate
01:54AM 14.6512 -85.0094 204° Southwest  Level FlightAware Approximate
01:55AM 14.5448 -85.0589 204° Southwest  Level FlightAware Approximate
01:56AM 14.4384 -85.1084 204° Southwest  Level FlightAware Approximate
01:57AM 14.3320 -85.1579 204° Southwest  Level FlightAware Approximate
01:58AM 14.2255 -85.2073 204° Southwest  Level FlightAware Approximate
01:59AM 14.1191 -85.2568 205° Southwest  Level FlightAware Approximate
02:00AM 14.0131 -85.3070 205° Southwest  Level FlightAware Approximate
02:01AM 13.9070 -85.3572 205° Southwest  Level FlightAware Approximate
02:02AM 13.8002 -85.4055 198° South  Level FlightAware Approximate
02:03AM 13.6910 -85.4471 208° Southwest  Level FlightAware Approximate
02:04AM 13.5876 -85.5028 208° Southwest  Level FlightAware Approximate
02:05AM 13.4836 -85.5571 203° Southwest  Level FlightAware Approximate
02:06AM 13.3758 -85.6032 203° Southwest  Level FlightAware Approximate
02:07AM 13.2681 -85.6494 203° Southwest  Level FlightAware Approximate
02:08AM 13.1608 -85.6966 203° Southwest  Level FlightAware Approximate
02:09AM 13.0535 -85.7439 203° Southwest  Level FlightAware Approximate
02:10AM 12.9463 -85.7910 203° Southwest  Level FlightAware Approximate
02:11AM 12.8394 -85.8392 208° Southwest  Level FlightAware Approximate
02:12AM 12.7368 -85.8962 208° Southwest  Level FlightAware Approximate
02:13AM 12.6307 -85.9456 202° Southwest  Level FlightAware Approximate
02:14AM 12.5225 -85.9906 202° Southwest  Level FlightAware Approximate
02:15AM 12.4153 -86.0377 203° Southwest  Level FlightAware Approximate
02:16AM 12.3076 -86.0836 201° Southwest  Level FlightAware Approximate
02:17AM 12.2012 -86.1327 206° Southwest  Level FlightAware Approximate
02:18AM 12.1500 -86.1500 44° Northeast  Level FlightAware Approximate
02:19AM 12.1415 -86.1682 44° Northeast  Level Estimated
02:20AM 12.1415 -86.1682 44° Northeast  Level Estimated
02:21AM 12.1415 -86.1682 44° Northeast  Level Estimated
02:22AM 12.1415 -86.1682 44° Northeast  Level Estimated
02:23AM 12.1415 -86.1682 44° Northeast  Level Estimated
02:24AM 12.1415 -86.1682 44° Northeast  Level Estimated
02:25AM 12.1415 -86.1682 44° Northeast  Level Estimated
02:26AM 12.1415 -86.1682 44° Northeast  Level Estimated
02:27AM 12.1415 -86.1682 44° Northeast  Level Estimated
02:28AM 12.1415 -86.1682 44° Northeast  Level Estimated
02:29AM 12.1415 -86.1682 44° Northeast  Level Estimated
02:30AM 12.1415 -86.1682 44° Northeast  Level Estimated
02:31AM 12.1415 -86.1682 44° Northeast  Level Estimated
02:32AM 12.1415 -86.1682 44° Northeast  Level Estimated
02:33AM 12.1415 -86.1682 44° Northeast  Level Estimated
02:34AM 12.1415 -86.1682 44° Northeast  Level Estimated
02:35AM 12.1415 -86.1682 44° Northeast  Level Estimated
02:36AM 12.1415 -86.1682 44° Northeast  Level Estimated